Tropical Cyclones
[Index]
Main Index Home Page Stock Weather Photos Extreme Storms Discussion Storm News and Storm Chasing Reports Tropical Cyclones / Hurricanes / Typhoons Weather Data and Links Wild Fires / Bushfires Weather Observation Techniques Weather Picture Catalogue Tornado Pictures and Reports Stock Video Footage and DVDs for sale
Season 1973-1974 Tropical Cyclone 197431 Track Map
Season 1973-1974 Summaries: [BoM-AU] [JTWC-AU] [JTWC-SIO] [JTWC-SPAC] [JTWC-SH]
<<- Previous TC | JTWC 1973-1974 Season | Next TC ->>

click for intensity scale information  Lat/long Grid: Show Hide

 Date Labels: Show Hide

Joint Typhoon Warning Centre Cyclone Data

Name: 197431
Number: 869 / 7431

20 Mar 1974 00:00 UTC to 31 Mar 1974 00:00 UTC

    date/time    lat    long     hPa   cat  kts
1974-03-20 00   12.8   128.9                              
1974-03-20 06   12.6   128.7                              
1974-03-20 12   12.5   128.5                              
1974-03-20 18   12.5   128.3                              
1974-03-21 00   12.4   128.0                              
1974-03-21 06   12.4   127.8                              
1974-03-21 12   12.3   127.6                              
1974-03-21 18   12.3   127.4                              
1974-03-22 00   12.2   127.1                              
1974-03-22 06   12.2   126.8                              
1974-03-22 12   12.1   126.5                              
1974-03-22 18   12.1   126.2                              
1974-03-23 00   12.0   125.9                              
1974-03-23 06   12.0   125.3                              
1974-03-23 12   12.0   124.6                              
1974-03-23 18   12.0   124.4                              
1974-03-24 00   12.1   123.8                              
1974-03-24 06   12.7   122.2                              
1974-03-24 12   13.4   120.3                              
1974-03-24 18   12.8   118.4                              
1974-03-25 00   12.3   116.6                              
1974-03-25 06   12.9   115.0                              
1974-03-25 12   13.6   113.4                              
1974-03-25 18   14.4   111.8                              
1974-03-26 00   15.1   110.3                              
1974-03-26 06   15.4   109.3                              
1974-03-26 12   15.7   108.4                              
1974-03-26 18   16.0   107.2                              
1974-03-27 00   16.4   106.2                              
1974-03-27 06   16.8   105.8                              
1974-03-27 12   17.3   105.8                              
1974-03-27 18   17.7   105.8                              
1974-03-28 00   18.1   105.9                              
1974-03-28 06   18.4   106.1                              
1974-03-28 12   18.8   106.4                              
1974-03-28 18   19.2   106.7                              
1974-03-29 00   19.7   106.9                              
1974-03-29 06   20.1   107.1                              
1974-03-29 12   20.4   107.3                              
1974-03-29 18   20.5   107.5                              
1974-03-30 00   20.7   107.7                              
1974-03-30 06   21.0   107.9                              
1974-03-30 12   21.4   108.2                              
1974-03-30 18   21.7   108.4                              
1974-03-31 00   21.9   108.6                              
Winds are 1-min average.

Tropical cyclone tracks developed by Michael Bath using data from the Joint Typhoon Warning Centre Best Tracks and Google Maps.


[Australian Severe Weather index] [Copyright Notice] [Email Contacts] [Search This Site] [Privacy Policy]
Document: tropical_cyclone_197431.htm Updated: 18 September 2016